Carpenter, WY

6:21 PM MDT on April 21, 2015 (GMT -0600)
I-25 exit 391, near Egbert, WY | | Change Station
CLOSE
Current Station
Personal Weather Station
Location: Egbert, WY
Elevation: 5374 ft
Nearby Weather Stations

Elev 5374 ft 41.16 °N, 104.26 °W | Updated 20 seconds ago

Partly Cloudy
Partly Cloudy
58.7 °F
Feels Like 58.7 °F
N
8.5
Wind Variable Wind from North
Gusts 14.5 mph

Today
High -- | Low -- °F
--% Chance of Precip.
Yesterday
High -- | Low -- °F
Precip. -- in
6:09 AM 7:43 PM
Waxing Crescent, 13% visible
Pressure 29.90 in
Visibility 10.0 miles
Clouds Scattered Clouds 10000 ft
Dew Point 28 °F
Humidity 30%
Rainfall -999.00 in
Snow Depth Not available.
UV 1 out of 12
Pollen 10.50 out of 12
Air Quality Not available.
Flu Activity Local Activity
METAR K82V 220015Z AUTO 01009KT 10SM SCT100 15/M02 A2990 RMK AO2

More Conditions Fewer Conditions

Pressure 29.90 in
Visibility 10.0 miles
Clouds Scattered Clouds 10000 ft
Dew Point 28 °F
Humidity 30%
Rainfall -999.00 in
Snow Depth Not available.
UV 1 out of 12
Pollen 10.50 out of 12
Air Quality Not available.
Flu Activity Local Activity
METAR K82V 220015Z AUTO 01009KT 10SM SCT100 15/M02 A2990 RMK AO2

More Conditions Fewer Conditions

10-Day Weather Forecast

Almanac

Astronomy

Apr. 21, 2015 Rise Set
Actual Time
Civil Twilight
Nautical Twilight
Astronomical Twilight
Moon
Length of Visible Light
Length of Day
Tomorrow will be .
, % of the Moon is Illuminated

Today's Extremes

State Highs State Lows

Community

WunderPhotos

Upload Photos

1,815,588 photos uploaded!

WunderBlogs® & News

Nearby

Air Quality

  Air Quality AQ Index Pollutant
Not available.

Snow Depth

Station Depth Elevation

Earthquake Activity

City Distance Mag. Time & Date
Minimum magnitude displayed is 2.5.

Coastal Water Temperatures

Place Temperature

Stations

Nearby Weather Stations

Station Location Temp. Windchill Dew Point Humidity Wind Precip. Elev Updated Type